Terminal Aerodrome Forecast
Issued by NWS

Home | Current Version | Previous Version | Text Only | Print | Product List | Glossary On
Versions: 1 2 3 4 5 6 7 8 9 10 11 12 13 14 15 16 17 18 19 20 21 22 23 24 25 26 27 28 29 30 31 32 33 34 35 36 37
000
FTUS41 KBOX 231739
TAFBAF
TAF
KBAF 231739Z 2318/2418 05009G19KT P6SM VCSH OVC020
     FM232100 05011G31KT P6SM -SHRAPL OVC015
     FM240000 05013G29KT P6SM -RAPL OVC015
     FM240600 04015G28KT 1SM -RAPL OVC015=

USA.gov is the U.S. government's official web portal to all federal, state and local government web resources and services.